Time;durP1;ratioP1;P1;durP2;ratioP2;P2;SDS_P1;SDS_P2;PMS_P1;PMS_P2;Temp;Humidity;BMP_temperature;BMP_pressure;BME280_temperature;BME280_humidity;BME280_pressure;Samples;Min_cycle;Max_cycle;Signal;HPM_P1;HPM_P2
2022/02/23 00:00:52;;;;;;;21.92;5.68;;;;;;;;;;5081286;28;20044;-81
2022/02/23 00:03:18;;;;;;;18.35;4.93;;;;;;;;;;5083548;28;20108;-82
2022/02/23 00:05:45;;;;;;;14.43;4.55;;;;;;;;;;5077689;28;20053;-81
2022/02/23 00:08:11;;;;;;;17.98;4.88;;;;;;;;;;5069671;28;20041;-82
2022/02/23 00:10:38;;;;;;;16.63;4.80;;;;;;;;;;5084307;28;20048;-82
2022/02/23 00:13:04;;;;;;;21.33;5.97;;;;;;;;;;5085255;28;20136;-83
2022/02/23 00:15:32;;;;;;;12.68;5.10;;;;;;;;;;5095418;28;20532;-83
2022/02/23 00:17:58;;;;;;;13.63;5.07;;;;;;;;;;5130509;23;20054;-79
2022/02/23 00:20:24;;;;;;;20.80;4.95;;;;;;;;;;5057017;28;20224;-80
2022/02/23 00:22:51;;;;;;;14.68;4.68;;;;;;;;;;5056644;28;20108;-80
2022/02/23 00:25:17;;;;;;;14.63;5.40;;;;;;;;;;5056700;28;20111;-79
2022/02/23 00:27:44;;;;;;;19.02;5.20;;;;;;;;;;5055590;28;20068;-80
2022/02/23 00:30:11;;;;;;;20.98;5.35;;;;;;;;;;5035721;28;20053;-80
2022/02/23 00:32:39;;;;;;;21.33;5.20;;;;;;;;;;5036224;28;20073;-80
2022/02/23 00:35:05;;;;;;;13.23;4.43;;;;;;;;;;5036890;28;20113;-80
2022/02/23 00:37:32;;;;;;;18.65;5.38;;;;;;;;;;5035802;28;20079;-80
2022/02/23 00:39:59;;;;;;;15.00;4.40;;;;;;;;;;5037082;28;20055;-80
2022/02/23 00:42:25;;;;;;;23.17;4.78;;;;;;;;;;5038442;28;20075;-80
2022/02/23 00:44:51;;;;;;;19.48;5.05;;;;;;;;;;5042339;28;20080;-80
2022/02/23 00:47:18;;;;;;;12.73;4.82;;;;;;;;;;5041625;28;20068;-79
2022/02/23 00:49:47;;;;;;;13.27;4.00;;;;;;;;;;5040305;28;20057;-80
2022/02/23 00:52:13;;;;;;;13.38;4.13;;;;;;;;;;5042053;28;20125;-80
2022/02/23 00:54:40;;;;;;;15.80;4.53;;;;;;;;;;5042269;28;20094;-80
2022/02/23 00:57:06;;;;;;;22.15;4.85;;;;;;;;;;5043980;28;20077;-80
2022/02/23 00:59:33;;;;;;;26.92;4.35;;;;;;;;;;5043586;28;20038;-82
2022/02/23 01:01:59;;;;;;;20.83;4.53;;;;;;;;;;5054446;28;20064;-81
2022/02/23 01:04:26;;;;;;;15.70;4.18;;;;;;;;;;5054620;28;20056;-79
2022/02/23 01:06:54;;;;;;;16.85;4.53;;;;;;;;;;5054075;28;20067;-80
2022/02/23 01:09:20;;;;;;;14.45;4.45;;;;;;;;;;5043560;28;20113;-81
2022/02/23 01:11:47;;;;;;;22.50;4.38;;;;;;;;;;5040004;28;20161;-79
2022/02/23 01:14:13;;;;;;;12.48;4.05;;;;;;;;;;5041964;28;20096;-81
2022/02/23 01:16:39;;;;;;;20.55;4.43;;;;;;;;;;5041804;28;20484;-80
2022/02/23 01:19:06;;;;;;;20.00;4.47;;;;;;;;;;5040322;28;20117;-79
2022/02/23 01:21:33;;;;;;;13.02;4.80;;;;;;;;;;5040961;28;20136;-80
2022/02/23 01:24:01;;;;;;;12.63;4.43;;;;;;;;;;5042477;28;20084;-79
2022/02/23 01:26:27;;;;;;;13.80;4.07;;;;;;;;;;5042634;28;20069;-81
2022/02/23 01:28:54;;;;;;;15.63;4.55;;;;;;;;;;5041871;28;20045;-79
2022/02/23 01:31:20;;;;;;;14.32;3.95;;;;;;;;;;5042487;28;20141;-80
2022/02/23 01:33:47;;;;;;;16.00;4.63;;;;;;;;;;5042550;28;20134;-79
2022/02/23 01:36:13;;;;;;;15.60;4.28;;;;;;;;;;5041438;28;20468;-79
2022/02/23 01:38:40;;;;;;;17.67;4.40;;;;;;;;;;5040172;28;20124;-80
2022/02/23 01:41:08;;;;;;;13.35;4.50;;;;;;;;;;5041468;28;20080;-81
2022/02/23 01:43:34;;;;;;;17.15;4.13;;;;;;;;;;5041619;28;20104;-80
2022/02/23 01:46:00;;;;;;;16.75;4.55;;;;;;;;;;5042184;28;20053;-78
2022/02/23 01:48:27;;;;;;;18.95;4.45;;;;;;;;;;5042864;28;20049;-80
2022/02/23 01:50:53;;;;;;;15.82;4.07;;;;;;;;;;5043326;28;20088;-79
2022/02/23 01:53:20;;;;;;;17.77;4.28;;;;;;;;;;5040013;28;20069;-80
2022/02/23 01:55:47;;;;;;;16.45;4.25;;;;;;;;;;5039169;28;20062;-79
2022/02/23 01:58:14;;;;;;;16.50;4.38;;;;;;;;;;5041154;28;20045;-79
2022/02/23 02:00:41;;;;;;;18.27;4.65;;;;;;;;;;5041673;28;20049;-81
2022/02/23 02:03:08;;;;;;;19.90;4.43;;;;;;;;;;5041182;28;20133;-80
2022/02/23 02:05:34;;;;;;;21.95;5.40;;;;;;;;;;5040935;28;20057;-80
2022/02/23 02:08:00;;;;;;;18.10;4.97;;;;;;;;;;5040292;28;20099;-80
2022/02/23 02:10:27;;;;;;;16.27;5.95;;;;;;;;;;5041062;28;20077;-79
2022/02/23 02:12:53;;;;;;;26.60;6.63;;;;;;;;;;5040836;28;20076;-79
2022/02/23 02:15:21;;;;;;;28.67;6.80;;;;;;;;;;5040837;28;20049;-79
2022/02/23 02:17:47;;;;;;;19.08;5.50;;;;;;;;;;5040038;28;20065;-77
2022/02/23 02:20:14;;;;;;;16.15;5.22;;;;;;;;;;5039047;28;20081;-79
2022/02/23 02:22:41;;;;;;;24.58;5.70;;;;;;;;;;5040656;28;20091;-79
2022/02/23 02:25:08;;;;;;;19.48;5.20;;;;;;;;;;5040721;28;20092;-80
2022/02/23 02:27:35;;;;;;;21.90;6.30;;;;;;;;;;5040194;28;20084;-81
2022/02/23 02:30:01;;;;;;;18.83;5.60;;;;;;;;;;5039561;28;20060;-80
2022/02/23 02:32:27;;;;;;;16.45;5.45;;;;;;;;;;5040352;28;20088;-80
2022/02/23 02:34:54;;;;;;;20.75;5.70;;;;;;;;;;5040121;28;20049;-80
2022/02/23 02:37:20;;;;;;;16.20;5.40;;;;;;;;;;5039543;28;20482;-79
2022/02/23 02:39:48;;;;;;;16.38;4.47;;;;;;;;;;5038459;28;20141;-80
2022/02/23 02:42:15;;;;;;;22.08;5.30;;;;;;;;;;5039229;28;20470;-80
2022/02/23 02:44:41;;;;;;;19.73;5.25;;;;;;;;;;5038616;28;20053;-80
2022/02/23 02:47:08;;;;;;;25.52;5.70;;;;;;;;;;5039035;28;20476;-80
2022/02/23 02:49:34;;;;;;;16.63;5.50;;;;;;;;;;5038424;28;20105;-80
2022/02/23 02:52:01;;;;;;;23.60;6.07;;;;;;;;;;5040020;28;20081;-80
2022/02/23 02:54:27;;;;;;;23.73;5.53;;;;;;;;;;5040620;28;20080;-80
2022/02/23 02:56:55;;;;;;;15.95;5.50;;;;;;;;;;5041619;28;20463;-79
2022/02/23 02:59:21;;;;;;;27.25;6.05;;;;;;;;;;5041629;28;20105;-80
2022/02/23 03:01:48;;;;;;;19.90;5.53;;;;;;;;;;5040862;28;20096;-80
2022/02/23 03:04:14;;;;;;;25.63;6.07;;;;;;;;;;5040419;28;20046;-81
2022/02/23 03:06:41;;;;;;;24.95;7.63;;;;;;;;;;5040965;28;20053;-81
2022/02/23 03:09:08;;;;;;;25.55;5.97;;;;;;;;;;5039957;28;20144;-79
2022/02/23 03:11:34;;;;;;;19.00;5.55;;;;;;;;;;5039507;28;20140;-80
2022/02/23 03:14:02;;;;;;;20.17;5.35;;;;;;;;;;5038515;28;20057;-80
2022/02/23 03:16:28;;;;;;;14.50;5.65;;;;;;;;;;5038422;28;20134;-80
2022/02/23 03:18:55;;;;;;;23.20;5.80;;;;;;;;;;5037742;28;20163;-80
2022/02/23 03:21:21;;;;;;;20.05;5.18;;;;;;;;;;5039105;28;20088;-80
2022/02/23 03:23:48;;;;;;;24.30;6.00;;;;;;;;;;5039128;28;20128;-79
2022/02/23 03:26:14;;;;;;;27.88;5.22;;;;;;;;;;5040668;28;20111;-80
2022/02/23 03:28:42;;;;;;;20.98;5.60;;;;;;;;;;5039688;28;20101;-80
2022/02/23 03:31:10;;;;;;;14.55;5.10;;;;;;;;;;5039583;28;20132;-80
2022/02/23 03:33:42;;;;;;;28.33;6.05;;;;;;;;;;5038663;28;20116;-80
2022/02/23 03:36:08;;;;;;;20.98;5.10;;;;;;;;;;5037515;28;20132;-79
2022/02/23 03:38:35;;;;;;;17.58;4.88;;;;;;;;;;5036878;28;20475;-80
2022/02/23 03:41:01;;;;;;;16.95;5.07;;;;;;;;;;5038698;28;20060;-80
2022/02/23 03:43:28;;;;;;;27.33;5.80;;;;;;;;;;5039456;28;20056;-79
2022/02/23 03:45:54;;;;;;;25.17;5.88;;;;;;;;;;5039618;28;20141;-81
2022/02/23 03:48:22;;;;;;;23.38;6.88;;;;;;;;;;5038764;28;20124;-81
2022/02/23 03:50:48;;;;;;;19.48;5.03;;;;;;;;;;5039898;28;20132;-80
2022/02/23 03:53:14;;;;;;;19.33;5.15;;;;;;;;;;5043067;28;20081;-80
2022/02/23 03:55:41;;;;;;;17.45;5.70;;;;;;;;;;5039344;28;20084;-80
2022/02/23 03:58:08;;;;;;;19.17;5.40;;;;;;;;;;5039695;28;20349;-81
2022/02/23 04:00:34;;;;;;;18.95;5.65;;;;;;;;;;5040968;28;20053;-80
2022/02/23 04:03:01;;;;;;;16.60;5.43;;;;;;;;;;5040658;28;20402;-79
2022/02/23 04:05:31;;;;;;;19.10;5.07;;;;;;;;;;5042082;28;20079;-81
2022/02/23 04:07:58;;;;;;;20.55;5.40;;;;;;;;;;5042436;28;20095;-80
2022/02/23 04:10:24;;;;;;;19.10;5.80;;;;;;;;;;5045804;28;20116;-80
2022/02/23 04:12:51;;;;;;;20.63;5.80;;;;;;;;;;5044043;28;20419;-80
2022/02/23 04:15:17;;;;;;;16.80;4.90;;;;;;;;;;5039466;28;20045;-81
2022/02/23 04:17:44;;;;;;;20.30;6.25;;;;;;;;;;5040538;28;20084;-82
2022/02/23 04:20:10;;;;;;;23.30;6.55;;;;;;;;;;5039854;28;20072;-81
2022/02/23 04:22:39;;;;;;;20.77;5.53;;;;;;;;;;5040247;28;20064;-80
2022/02/23 04:25:06;;;;;;;14.52;5.63;;;;;;;;;;5041646;28;20056;-79
2022/02/23 04:27:32;;;;;;;16.63;5.72;;;;;;;;;;5043894;28;20075;-78
2022/02/23 04:29:59;;;;;;;17.77;4.70;;;;;;;;;;5039443;28;20489;-79
2022/02/23 04:32:25;;;;;;;19.08;6.68;;;;;;;;;;5045753;28;20050;-79
2022/02/23 04:34:53;;;;;;;23.00;5.75;;;;;;;;;;5043047;28;20092;-79
2022/02/23 04:37:20;;;;;;;21.63;5.30;;;;;;;;;;5044246;28;20599;-83
2022/02/23 04:39:47;;;;;;;22.73;5.20;;;;;;;;;;5041717;28;20077;-78
2022/02/23 04:42:14;;;;;;;22.08;5.72;;;;;;;;;;5042626;28;20156;-78
2022/02/23 04:44:40;;;;;;;22.48;5.35;;;;;;;;;;5041435;28;20132;-78
2022/02/23 04:47:07;;;;;;;22.15;6.28;;;;;;;;;;5045513;28;20112;-79
2022/02/23 04:49:33;;;;;;;25.02;6.93;;;;;;;;;;5048170;28;20105;-79
2022/02/23 04:51:59;;;;;;;25.00;8.55;;;;;;;;;;5047681;28;20073;-79
2022/02/23 04:54:27;;;;;;;20.35;5.28;;;;;;;;;;5044763;28;20528;-79
2022/02/23 04:56:55;;;;;;;16.17;5.13;;;;;;;;;;5040904;28;20057;-80
2022/02/23 04:59:21;;;;;;;21.90;5.82;;;;;;;;;;5042087;28;20174;-80
2022/02/23 05:01:48;;;;;;;15.57;5.40;;;;;;;;;;5043101;28;20049;-80
2022/02/23 05:04:14;;;;;;;18.50;6.40;;;;;;;;;;5043270;28;20049;-82
2022/02/23 05:06:41;;;;;;;16.25;5.78;;;;;;;;;;5042393;28;20132;-81
2022/02/23 05:09:07;;;;;;;26.25;5.78;;;;;;;;;;5041386;28;20104;-81
2022/02/23 05:11:33;;;;;;;17.70;5.95;;;;;;;;;;5045510;28;20081;-80
2022/02/23 05:14:01;;;;;;;20.08;5.43;;;;;;;;;;5046894;28;20168;-80
2022/02/23 05:16:28;;;;;;;20.83;6.68;;;;;;;;;;5047748;28;20057;-81
2022/02/23 05:18:54;;;;;;;21.42;6.45;;;;;;;;;;5048820;28;20048;-81
2022/02/23 05:21:20;;;;;;;16.10;5.25;;;;;;;;;;5050111;28;20045;-82
2022/02/23 05:23:47;;;;;;;17.05;5.72;;;;;;;;;;5052108;28;20081;-80
2022/02/23 05:26:14;;;;;;;14.13;5.78;;;;;;;;;;5053439;28;20105;-80
2022/02/23 05:28:40;;;;;;;15.98;5.60;;;;;;;;;;5053570;28;20042;-81
2022/02/23 05:31:08;;;;;;;19.42;5.40;;;;;;;;;;5053495;28;20126;-80
2022/02/23 05:33:34;;;;;;;25.42;7.35;;;;;;;;;;5052482;28;20077;-80
2022/02/23 05:36:01;;;;;;;20.95;5.45;;;;;;;;;;5052327;28;20076;-79
2022/02/23 05:38:28;;;;;;;26.50;7.10;;;;;;;;;;5051091;28;20103;-79
2022/02/23 05:40:55;;;;;;;23.05;8.68;;;;;;;;;;5048310;28;20069;-81
2022/02/23 05:43:22;;;;;;;22.83;6.60;;;;;;;;;;5042715;28;20062;-80
2022/02/23 05:45:48;;;;;;;24.63;5.88;;;;;;;;;;5043053;28;20052;-79
2022/02/23 05:48:16;;;;;;;24.13;7.57;;;;;;;;;;5041644;28;20064;-79
2022/02/23 05:50:42;;;;;;;19.88;6.72;;;;;;;;;;5044463;28;20523;-79
2022/02/23 05:53:09;;;;;;;26.67;7.05;;;;;;;;;;5050321;28;20041;-80
2022/02/23 05:55:35;;;;;;;22.45;6.43;;;;;;;;;;5057653;28;20065;-80
2022/02/23 05:58:01;;;;;;;14.75;5.80;;;;;;;;;;5057777;28;20115;-79
2022/02/23 06:00:28;;;;;;;21.77;6.13;;;;;;;;;;5057319;28;20049;-80
2022/02/23 06:02:54;;;;;;;20.00;5.90;;;;;;;;;;5047316;28;20136;-84
2022/02/23 06:05:22;;;;;;;21.35;6.35;;;;;;;;;;5040899;28;20073;-82
2022/02/23 06:07:48;;;;;;;16.55;6.10;;;;;;;;;;5041689;28;20129;-80
2022/02/23 06:10:15;;;;;;;15.75;5.82;;;;;;;;;;5040265;28;20144;-80
2022/02/23 06:12:41;;;;;;;22.80;5.85;;;;;;;;;;5040220;28;20109;-81
2022/02/23 06:15:08;;;;;;;23.15;6.40;;;;;;;;;;5040697;28;20411;-81
2022/02/23 06:17:35;;;;;;;20.45;6.50;;;;;;;;;;5040541;28;20085;-81
2022/02/23 06:20:01;;;;;;;16.15;6.00;;;;;;;;;;5043104;28;20088;-82
2022/02/23 06:22:30;;;;;;;22.83;6.75;;;;;;;;;;5040540;28;20128;-80
2022/02/23 06:24:57;;;;;;;17.15;7.00;;;;;;;;;;5040718;28;20116;-82
2022/02/23 06:27:24;;;;;;;14.15;5.57;;;;;;;;;;5039912;28;20111;-83
2022/02/23 06:29:50;;;;;;;20.08;6.15;;;;;;;;;;5047278;28;20104;-82
2022/02/23 06:32:16;;;;;;;25.40;6.38;;;;;;;;;;5049399;28;20061;-83
2022/02/23 06:34:43;;;;;;;29.13;6.93;;;;;;;;;;5051734;28;20064;-81
2022/02/23 06:37:09;;;;;;;18.48;6.25;;;;;;;;;;5042396;28;20065;-81
2022/02/23 06:39:39;;;;;;;24.67;6.82;;;;;;;;;;5044579;28;20109;-81
2022/02/23 06:42:05;;;;;;;21.13;6.72;;;;;;;;;;5042844;28;20053;-82
2022/02/23 06:44:32;;;;;;;24.40;6.80;;;;;;;;;;5038776;28;20064;-81
2022/02/23 06:47:00;;;;;;;17.58;6.25;;;;;;;;;;5040515;28;20105;-81
2022/02/23 06:49:27;;;;;;;20.55;7.03;;;;;;;;;;5044289;28;20499;-80
2022/02/23 06:51:56;;;;;;;16.70;6.45;;;;;;;;;;5048093;28;20050;-81
2022/02/23 06:54:23;;;;;;;18.05;5.97;;;;;;;;;;5047747;28;20053;-82
2022/02/23 06:56:51;;;;;;;16.30;6.57;;;;;;;;;;5043552;28;20065;-82
2022/02/23 06:59:17;;;;;;;27.77;6.80;;;;;;;;;;5040892;28;20137;-82
2022/02/23 07:01:44;;;;;;;16.05;6.32;;;;;;;;;;5041794;28;20073;-81
2022/02/23 07:04:10;;;;;;;17.55;6.15;;;;;;;;;;5042305;28;20053;-81
2022/02/23 07:06:37;;;;;;;15.25;5.68;;;;;;;;;;5041787;28;20114;-82
2022/02/23 07:09:04;;;;;;;16.67;6.28;;;;;;;;;;5039010;28;20065;-81
2022/02/23 07:11:31;;;;;;;20.98;5.45;;;;;;;;;;5038815;28;20096;-81
2022/02/23 07:13:59;;;;;;;19.05;5.88;;;;;;;;;;5039519;28;20072;-82
2022/02/23 07:16:25;;;;;;;16.00;5.35;;;;;;;;;;5037624;28;20045;-80
2022/02/23 07:18:52;;;;;;;21.20;5.65;;;;;;;;;;5036856;28;20504;-80
2022/02/23 07:21:19;;;;;;;14.43;5.00;;;;;;;;;;5035081;28;20049;-81
2022/02/23 07:23:46;;;;;;;17.05;5.47;;;;;;;;;;5037965;28;20507;-81
2022/02/23 07:26:14;;;;;;;15.63;4.90;;;;;;;;;;5037622;28;20089;-81
2022/02/23 07:28:40;;;;;;;23.48;6.03;;;;;;;;;;5036781;28;20092;-80
2022/02/23 07:31:08;;;;;;;18.75;5.53;;;;;;;;;;5037609;28;20072;-82
2022/02/23 07:33:35;;;;;;;14.38;5.47;;;;;;;;;;5037566;28;20053;-80
2022/02/23 07:36:01;;;;;;;17.52;6.05;;;;;;;;;;5037442;28;20076;-82
2022/02/23 07:38:28;;;;;;;18.63;5.53;;;;;;;;;;5038051;28;20133;-81
2022/02/23 07:40:54;;;;;;;16.10;6.20;;;;;;;;;;5039690;28;20068;-81
2022/02/23 07:43:20;;;;;;;13.57;5.25;;;;;;;;;;5039633;28;20050;-81
2022/02/23 07:45:47;;;;;;;17.42;5.65;;;;;;;;;;5038815;28;20056;-82
2022/02/23 07:48:15;;;;;;;17.83;6.68;;;;;;;;;;5038103;28;20118;-80
2022/02/23 07:50:41;;;;;;;18.25;5.90;;;;;;;;;;5038799;28;20105;-82
2022/02/23 07:53:08;;;;;;;18.77;5.78;;;;;;;;;;5039466;28;20136;-81
2022/02/23 07:55:36;;;;;;;13.48;5.78;;;;;;;;;;5038017;28;20168;-82
2022/02/23 07:58:04;;;;;;;19.27;5.35;;;;;;;;;;5037618;28;20053;-81
2022/02/23 08:00:30;;;;;;;16.75;6.15;;;;;;;;;;5041228;28;20052;-82
2022/02/23 08:02:56;;;;;;;11.98;5.00;;;;;;;;;;5038760;28;20144;-82
2022/02/23 08:05:25;;;;;;;17.80;5.55;;;;;;;;;;5039825;28;20140;-82
2022/02/23 08:07:52;;;;;;;16.92;5.40;;;;;;;;;;5040175;28;20041;-80
2022/02/23 08:10:19;;;;;;;18.75;6.53;;;;;;;;;;5037528;28;20052;-81
2022/02/23 08:12:45;;;;;;;15.55;5.53;;;;;;;;;;5037886;28;20109;-81
2022/02/23 08:20:41;;;;;;;16.92;5.63;;;;;;;;;;5041273;28;20189;-83
2022/02/23 08:23:07;;;;;;;14.45;6.00;;;;;;;;;;5042801;28;20049;-80
2022/02/23 08:25:34;;;;;;;15.30;5.47;;;;;;;;;;5045374;28;20049;-82
2022/02/23 08:28:00;;;;;;;17.67;5.20;;;;;;;;;;5046191;28;20152;-83
2022/02/23 08:30:27;;;;;;;12.98;4.72;;;;;;;;;;5047402;28;20069;-83
2022/02/23 08:32:55;;;;;;;12.80;5.20;;;;;;;;;;5049124;28;20073;-82
2022/02/23 08:35:22;;;;;;;12.80;4.93;;;;;;;;;;5044265;28;20523;-83
2022/02/23 08:37:49;;;;;;;12.43;5.88;;;;;;;;;;5044792;28;20068;-82
2022/02/23 08:40:16;;;;;;;16.67;5.70;;;;;;;;;;5047417;28;20156;-82
2022/02/23 08:42:42;;;;;;;16.92;5.70;;;;;;;;;;5042921;28;20060;-82
2022/02/23 08:45:09;;;;;;;19.35;5.80;;;;;;;;;;5043208;28;20128;-83
2022/02/23 08:47:35;;;;;;;16.00;5.72;;;;;;;;;;5045334;28;20124;-84
2022/02/23 08:50:02;;;;;;;12.32;4.78;;;;;;;;;;5044525;28;20499;-84
2022/02/23 08:52:28;;;;;;;18.02;6.20;;;;;;;;;;5044508;28;20057;-84
2022/02/23 08:54:56;;;;;;;13.25;5.47;;;;;;;;;;5043467;28;20112;-84
2022/02/23 08:57:22;;;;;;;19.15;5.25;;;;;;;;;;5045306;28;20296;-84
2022/02/23 08:59:49;;;;;;;13.30;5.22;;;;;;;;;;5043801;28;20114;-83
2022/02/23 09:02:15;;;;;;;19.73;13.45;;;;;;;;;;5044353;28;20080;-84
2022/02/23 09:04:41;;;;;;;16.17;5.13;;;;;;;;;;5044544;28;20073;-84
2022/02/23 09:07:10;;;;;;;16.27;5.40;;;;;;;;;;5044071;28;20076;-84
2022/02/23 09:09:36;;;;;;;12.98;4.50;;;;;;;;;;5042269;28;20084;-84
2022/02/23 09:12:04;;;;;;;19.90;5.57;;;;;;;;;;5044564;28;20053;-84
2022/02/23 09:14:31;;;;;;;21.02;5.45;;;;;;;;;;5043700;28;20049;-83
2022/02/23 09:16:57;;;;;;;13.10;4.85;;;;;;;;;;5043677;28;20049;-84
2022/02/23 09:19:24;;;;;;;14.10;5.32;;;;;;;;;;5043315;28;20109;-83
2022/02/23 09:21:50;;;;;;;12.55;5.03;;;;;;;;;;5043936;28;20113;-83
2022/02/23 09:24:17;;;;;;;17.00;5.35;;;;;;;;;;5044399;28;20085;-82
2022/02/23 09:26:43;;;;;;;15.90;5.25;;;;;;;;;;5046995;28;20057;-83
2022/02/23 09:29:11;;;;;;;10.90;4.53;;;;;;;;;;5044453;28;20084;-84
2022/02/23 09:31:38;;;;;;;17.85;5.53;;;;;;;;;;5044017;28;20140;-84
2022/02/23 09:34:04;;;;;;;11.20;5.00;;;;;;;;;;5045882;28;20060;-87
2022/02/23 09:36:38;;;;;;;16.63;5.47;;;;;;;;;;5043744;28;20117;-87
2022/02/23 09:39:04;;;;;;;11.85;4.70;;;;;;;;;;5044165;28;20049;-83
2022/02/23 09:41:31;;;;;;;17.95;4.95;;;;;;;;;;5042264;28;20092;-86
2022/02/23 09:43:58;;;;;;;10.82;5.03;;;;;;;;;;5045614;28;20113;-86
2022/02/23 09:46:27;;;;;;;11.98;4.72;;;;;;;;;;5045958;28;20049;-84
2022/02/23 09:48:58;;;;;;;16.42;4.85;;;;;;;;;;5045987;28;20068;-85
2022/02/23 09:51:24;;;;;;;16.23;5.07;;;;;;;;;;5047739;28;20064;-83
2022/02/23 09:53:59;;;;;;;18.27;5.10;;;;;;;;;;5042139;28;20073;-85
2022/02/23 09:56:26;;;;;;;13.15;4.70;;;;;;;;;;5042390;28;20057;-83
2022/02/23 09:58:53;;;;;;;13.23;4.53;;;;;;;;;;5046108;28;20053;-84
2022/02/23 10:01:23;;;;;;;15.00;4.97;;;;;;;;;;5047259;28;20053;-84
2022/02/23 10:03:51;;;;;;;21.05;4.65;;;;;;;;;;5046659;28;20144;-84
2022/02/23 10:06:18;;;;;;;17.98;5.03;;;;;;;;;;5046521;28;20053;-84
2022/02/23 10:08:45;;;;;;;13.88;4.38;;;;;;;;;;5047908;28;20092;-83
2022/02/23 10:11:17;;;;;;;18.92;5.07;;;;;;;;;;5047503;28;20385;-84
2022/02/23 10:13:48;;;;;;;18.02;4.85;;;;;;;;;;5046347;28;20085;-84
2022/02/23 10:16:15;;;;;;;18.17;5.30;;;;;;;;;;5047541;28;20073;-84
2022/02/23 10:18:41;;;;;;;14.32;5.22;;;;;;;;;;5046342;28;20046;-84
2022/02/23 10:21:09;;;;;;;17.08;4.43;;;;;;;;;;5047204;28;20085;-83
2022/02/23 10:23:35;;;;;;;15.48;4.30;;;;;;;;;;5045339;28;20128;-84
2022/02/23 10:26:05;;;;;;;14.60;4.10;;;;;;;;;;5044581;28;20049;-84
2022/02/23 10:28:32;;;;;;;15.48;4.18;;;;;;;;;;5044903;28;20463;-84
2022/02/23 10:30:59;;;;;;;15.55;4.43;;;;;;;;;;5045804;28;20076;-83
2022/02/23 10:33:27;;;;;;;9.77;3.65;;;;;;;;;;5044260;28;20405;-83
2022/02/23 10:35:58;;;;;;;12.60;3.60;;;;;;;;;;5045033;28;20078;-83
2022/02/23 10:38:27;;;;;;;12.55;3.67;;;;;;;;;;5055333;28;20088;-84
2022/02/23 10:40:54;;;;;;;11.70;3.28;;;;;;;;;;5057414;28;20037;-83
2022/02/23 10:43:21;;;;;;;10.88;3.60;;;;;;;;;;5056965;28;20036;-84
2022/02/23 10:45:50;;;;;;;12.52;3.92;;;;;;;;;;5052129;28;20056;-83
2022/02/23 10:48:28;;;;;;;13.82;3.80;;;;;;;;;;5045283;28;20045;-83
2022/02/23 10:50:55;;;;;;;11.57;3.97;;;;;;;;;;5044893;28;20049;-82
2022/02/23 10:53:27;;;;;;;17.90;4.72;;;;;;;;;;5044428;28;20137;-83
2022/02/23 10:55:53;;;;;;;13.95;4.03;;;;;;;;;;5044580;28;20460;-83
2022/02/23 10:58:20;;;;;;;14.50;3.40;;;;;;;;;;5044618;28;20109;-83
2022/02/23 11:00:50;;;;;;;12.95;3.85;;;;;;;;;;5044188;28;20101;-83
2022/02/23 11:03:18;;;;;;;12.90;3.83;;;;;;;;;;5046232;28;20060;-84
2022/02/23 11:05:46;;;;;;;9.88;3.88;;;;;;;;;;5046327;28;20045;-83
2022/02/23 11:08:14;;;;;;;18.50;3.70;;;;;;;;;;5047030;28;20064;-84
2022/02/23 11:10:44;;;;;;;10.55;3.60;;;;;;;;;;5047488;28;20041;-83
2022/02/23 11:13:12;;;;;;;14.57;3.70;;;;;;;;;;5047775;28;20113;-83
2022/02/23 11:15:42;;;;;;;8.98;3.65;;;;;;;;;;5047501;28;20065;-83
2022/02/23 11:18:09;;;;;;;12.40;4.05;;;;;;;;;;5044889;28;20053;-83
2022/02/23 11:20:36;;;;;;;14.82;3.95;;;;;;;;;;5046504;28;20099;-83
2022/02/23 11:23:06;;;;;;;13.65;4.05;;;;;;;;;;5044991;28;20080;-82
2022/02/23 11:25:34;;;;;;;12.10;3.97;;;;;;;;;;5044823;28;20049;-82
2022/02/23 11:28:07;;;;;;;11.48;3.85;;;;;;;;;;5044621;28;20579;-82
2022/02/23 11:30:33;;;;;;;10.73;3.50;;;;;;;;;;5046302;28;20053;-84
2022/02/23 11:33:02;;;;;;;11.23;3.95;;;;;;;;;;5046126;28;20113;-84
2022/02/23 11:35:38;;;;;;;18.73;4.80;;;;;;;;;;5045733;28;20144;-84
2022/02/23 11:38:05;;;;;;;13.55;3.63;;;;;;;;;;5045749;28;20053;-82
2022/02/23 11:40:34;;;;;;;14.55;4.25;;;;;;;;;;5044268;28;20105;-82
2022/02/23 11:43:15;;;;;;;12.30;3.78;;;;;;;;;;5045244;28;20059;-83
2022/02/23 11:45:56;;;;;;;15.40;4.53;;;;;;;;;;5045971;28;20065;-83
2022/02/23 11:48:22;;;;;;;16.80;3.85;;;;;;;;;;5044903;28;20219;-83
2022/02/23 11:51:02;;;;;;;11.77;3.50;;;;;;;;;;5045324;28;20109;-82
2022/02/23 11:53:37;;;;;;;14.98;3.50;;;;;;;;;;5045479;28;20058;-84
2022/02/23 11:56:09;;;;;;;9.93;3.38;;;;;;;;;;5046247;28;20083;-85
2022/02/23 11:58:52;;;;;;;12.10;3.38;;;;;;;;;;5044436;28;20060;-83
2022/02/23 12:01:21;;;;;;;11.73;3.40;;;;;;;;;;5043244;28;20083;-82
2022/02/23 12:04:06;;;;;;;9.55;3.20;;;;;;;;;;5043537;28;20101;-83
2022/02/23 12:06:48;;;;;;;9.43;3.33;;;;;;;;;;5044039;28;20057;-83
2022/02/23 12:09:36;;;;;;;9.02;3.17;;;;;;;;;;5042674;28;20049;-82
2022/02/23 12:12:03;;;;;;;10.30;3.25;;;;;;;;;;5043514;28;20049;-82
2022/02/23 12:14:44;;;;;;;11.13;3.53;;;;;;;;;;5043896;28;20057;-82
2022/02/23 12:17:12;;;;;;;9.30;3.63;;;;;;;;;;5043949;28;20121;-82
2022/02/23 12:19:42;;;;;;;9.27;3.05;;;;;;;;;;5137408;22;20066;-82
2022/02/23 12:22:11;;;;;;;9.00;3.17;;;;;;;;;;5134020;27;20122;-82
2022/02/23 12:24:44;;;;;;;10.32;3.42;;;;;;;;;;5142638;28;20090;-81
2022/02/23 12:27:20;;;;;;;8.57;2.78;;;;;;;;;;5123936;28;20050;-83
2022/02/23 12:29:47;;;;;;;12.18;3.33;;;;;;;;;;5102949;28;20075;-83
2022/02/23 12:32:16;;;;;;;8.25;3.03;;;;;;;;;;5044332;28;20174;-83
2022/02/23 12:34:42;;;;;;;10.25;2.90;;;;;;;;;;5077791;28;20053;-81
2022/02/23 12:40:01;;;;;;;13.48;3.53;;;;;;;;;;5154519;27;20124;-79
2022/02/23 12:42:30;;;;;;;11.07;3.35;;;;;;;;;;5114801;28;20086;-79
2022/02/23 12:44:59;;;;;;;9.48;3.13;;;;;;;;;;5113373;28;20050;-80
2022/02/23 12:47:24;;;;;;;10.20;3.40;;;;;;;;;;5112484;28;20040;-82
2022/02/23 12:49:58;;;;;;;9.27;2.97;;;;;;;;;;5086535;28;20554;-81
2022/02/23 12:52:24;;;;;;;9.43;3.38;;;;;;;;;;4915400;28;1249409;-82
2022/02/23 12:59:58;;;;;;;6.25;3.42;;;;;;;;;;4925001;29;20056;-79
2022/02/23 13:02:27;;;;;;;9.10;4.22;;;;;;;;;;4921374;29;20056;-82
2022/02/23 13:04:53;;;;;;;9.63;3.30;;;;;;;;;;4921446;29;20062;-81
2022/02/23 13:07:22;;;;;;;10.05;3.00;;;;;;;;;;4922898;29;20083;-84
2022/02/23 13:09:53;;;;;;;8.68;3.50;;;;;;;;;;4923024;29;20053;-82
2022/02/23 13:12:21;;;;;;;10.60;2.75;;;;;;;;;;4922184;29;20139;-82
2022/02/23 13:14:55;;;;;;;9.45;2.90;;;;;;;;;;4921111;29;20135;-82
2022/02/23 13:17:23;;;;;;;7.57;2.72;;;;;;;;;;4921647;29;20143;-83
2022/02/23 13:19:50;;;;;;;6.38;2.70;;;;;;;;;;4921627;29;20052;-82
2022/02/23 13:22:17;;;;;;;11.43;3.40;;;;;;;;;;4921563;29;20052;-82
2022/02/23 13:24:44;;;;;;;9.07;2.97;;;;;;;;;;4920833;29;20155;-81
2022/02/23 13:27:12;;;;;;;11.43;3.60;;;;;;;;;;4920171;29;20102;-81
2022/02/23 13:29:39;;;;;;;9.52;3.72;;;;;;;;;;4921131;29;20055;-82
2022/02/23 13:32:06;;;;;;;9.05;3.03;;;;;;;;;;4921446;29;20048;-82
2022/02/23 13:34:36;;;;;;;29.55;5.35;;;;;;;;;;4921372;29;20135;-81
2022/02/23 13:37:09;;;;;;;9.93;4.03;;;;;;;;;;4922422;29;20052;-81
2022/02/23 13:39:42;;;;;;;12.43;3.63;;;;;;;;;;4921333;29;20115;-81
2022/02/23 13:42:10;;;;;;;13.55;4.07;;;;;;;;;;4924709;29;20080;-80
2022/02/23 13:44:38;;;;;;;19.75;4.63;;;;;;;;;;4927239;29;20075;-80
2022/02/23 13:47:06;;;;;;;21.15;4.70;;;;;;;;;;4925530;29;20172;-83
2022/02/23 13:49:33;;;;;;;15.45;3.80;;;;;;;;;;4917138;29;20500;-83
2022/02/23 13:52:02;;;;;;;16.73;3.75;;;;;;;;;;4886058;29;20089;-82
2022/02/23 13:54:29;;;;;;;11.90;2.95;;;;;;;;;;4870898;29;20069;-81
2022/02/23 13:56:56;;;;;;;7.65;3.38;;;;;;;;;;4871799;29;20056;-83
2022/02/23 13:59:23;;;;;;;10.60;3.80;;;;;;;;;;4877922;29;20501;-81
2022/02/23 14:02:04;;;;;;;12.13;3.30;;;;;;;;;;4889650;29;20112;-82
2022/02/23 14:04:38;;;;;;;11.43;3.50;;;;;;;;;;4890856;29;20053;-81
2022/02/23 14:07:06;;;;;;;10.88;3.53;;;;;;;;;;4891903;29;20061;-82
2022/02/23 14:09:37;;;;;;;12.75;3.20;;;;;;;;;;4890383;29;20092;-82
2022/02/23 14:12:04;;;;;;;8.90;2.95;;;;;;;;;;4889300;29;20049;-80
2022/02/23 14:14:36;;;;;;;8.05;2.72;;;;;;;;;;4889906;29;20087;-82
2022/02/23 14:17:11;;;;;;;6.27;3.13;;;;;;;;;;4888031;29;20552;-81
2022/02/23 14:19:39;;;;;;;7.95;3.00;;;;;;;;;;4888420;29;20053;-81
2022/02/23 14:22:08;;;;;;;9.20;2.85;;;;;;;;;;4889248;29;20064;-80
2022/02/23 14:24:35;;;;;;;12.00;3.20;;;;;;;;;;4889546;29;20099;-81
2022/02/23 14:27:03;;;;;;;8.27;3.42;;;;;;;;;;4887906;29;20053;-80
2022/02/23 14:29:30;;;;;;;9.60;3.10;;;;;;;;;;4887632;29;20081;-81
2022/02/23 14:31:58;;;;;;;8.38;3.17;;;;;;;;;;4889360;29;20092;-82
2022/02/23 14:34:25;;;;;;;11.13;3.25;;;;;;;;;;4891464;29;20053;-80
2022/02/23 14:36:54;;;;;;;8.20;3.10;;;;;;;;;;4891574;29;20080;-83
2022/02/23 14:39:23;;;;;;;5.72;2.50;;;;;;;;;;4890431;29;20068;-81
2022/02/23 14:41:50;;;;;;;7.13;2.92;;;;;;;;;;4891730;29;20140;-80
2022/02/23 14:44:17;;;;;;;8.70;2.72;;;;;;;;;;4891381;29;20049;-83
2022/02/23 14:46:43;;;;;;;7.22;3.00;;;;;;;;;;4894254;29;20053;-81